createdAt,value
2019-05-20T00:00:49.832Z,997.41
2019-05-20T00:01:49.834Z,997.34
2019-05-20T00:02:49.779Z,997.38
2019-05-20T00:03:50.873Z,997.44
2019-05-20T00:04:49.728Z,997.46
2019-05-20T00:05:49.776Z,997.49
2019-05-20T00:06:49.671Z,997.48
2019-05-20T00:07:49.774Z,997.50
2019-05-20T00:08:49.624Z,997.48
2019-05-20T00:09:49.675Z,997.48
2019-05-20T00:10:49.563Z,997.49
2019-05-20T00:11:53.542Z,997.52
2019-05-20T00:12:49.512Z,997.52
2019-05-20T00:13:49.495Z,997.52
2019-05-20T00:14:49.458Z,997.49
2019-05-20T00:15:49.509Z,997.52
2019-05-20T00:16:49.476Z,997.54
2019-05-20T00:17:49.428Z,997.51
2019-05-20T00:18:49.385Z,997.53
2019-05-20T00:19:50.810Z,997.53
2019-05-20T00:20:49.296Z,997.52
2019-05-20T00:21:49.393Z,997.52
2019-05-20T00:22:49.245Z,997.53
2019-05-20T00:23:50.291Z,997.48
2019-05-20T00:24:49.195Z,997.47
2019-05-20T00:25:49.273Z,997.46
2019-05-20T00:26:49.139Z,997.41
2019-05-20T00:27:49.186Z,997.42
2019-05-20T00:28:49.083Z,997.38
2019-05-20T00:29:49.094Z,997.38
2019-05-20T00:30:49.022Z,997.33
2019-05-20T00:31:49.113Z,997.33
2019-05-20T00:32:48.977Z,997.31
2019-05-20T00:33:49.033Z,997.27
2019-05-20T00:34:48.933Z,997.32
2019-05-20T00:35:48.942Z,997.28
2019-05-20T00:36:48.871Z,997.29
2019-05-20T00:37:48.963Z,997.34
2019-05-20T00:38:48.866Z,997.33
2019-05-20T00:39:48.864Z,997.37
2019-05-20T00:40:48.757Z,997.39
2019-05-20T00:41:48.850Z,997.36
2019-05-20T00:42:48.709Z,997.36
2019-05-20T00:43:48.743Z,997.33
2019-05-20T00:44:48.658Z,997.38
2019-05-20T00:45:48.652Z,997.34
2019-05-20T00:46:48.614Z,997.32
2019-05-20T00:47:48.674Z,997.31
2019-05-20T00:48:48.554Z,997.26
2019-05-20T00:49:49.719Z,997.29
2019-05-20T00:50:48.506Z,997.31
2019-05-20T00:51:48.541Z,997.27
2019-05-20T00:52:48.444Z,997.25
2019-05-20T00:53:48.449Z,997.26
2019-05-20T00:54:48.386Z,997.22
2019-05-20T00:55:48.465Z,997.21
2019-05-20T00:56:48.347Z,997.22
2019-05-20T00:57:48.377Z,997.23
2019-05-20T00:58:48.285Z,997.23
2019-05-20T00:59:49.306Z,997.26
2019-05-20T01:00:48.228Z,997.27
2019-05-20T01:01:48.301Z,997.30
2019-05-20T01:02:56.495Z,997.31
2019-05-20T01:03:48.222Z,997.30
2019-05-20T01:04:48.127Z,997.34
2019-05-20T01:05:48.118Z,997.35
2019-05-20T01:06:48.068Z,997.35
2019-05-20T01:07:48.218Z,997.32
2019-05-20T01:08:48.021Z,997.31
2019-05-20T01:09:48.063Z,997.36
2019-05-20T01:10:48.069Z,997.32
2019-05-20T01:11:48.995Z,997.28
2019-05-20T01:12:47.915Z,997.30
2019-05-20T01:13:47.985Z,997.29
2019-05-20T01:14:47.855Z,997.26
2019-05-20T01:15:47.885Z,997.29
2019-05-20T01:16:47.799Z,997.26
2019-05-20T01:17:47.809Z,997.29
2019-05-20T01:18:47.754Z,997.24
2019-05-20T01:19:47.805Z,997.27
2019-05-20T01:20:47.701Z,997.26
2019-05-20T01:21:48.749Z,997.24
2019-05-20T01:22:47.642Z,997.26
2019-05-20T01:23:47.666Z,997.27
2019-05-20T01:24:47.600Z,997.26
2019-05-20T01:25:48.675Z,997.31
2019-05-20T01:26:47.533Z,997.33
2019-05-20T01:27:47.562Z,997.34
2019-05-20T01:28:47.482Z,997.35
2019-05-20T01:29:47.475Z,997.34
2019-05-20T01:30:47.429Z,997.39
2019-05-20T01:31:47.483Z,997.40
2019-05-20T01:32:47.500Z,997.41
2019-05-20T01:33:47.402Z,997.39
2019-05-20T01:34:47.329Z,997.41
2019-05-20T01:35:47.409Z,997.39
2019-05-20T01:36:47.262Z,997.41
2019-05-20T01:37:47.327Z,997.41
2019-05-20T01:38:47.219Z,997.40
2019-05-20T01:39:47.255Z,997.37
2019-05-20T01:40:47.169Z,997.41
2019-05-20T01:41:47.241Z,997.37
2019-05-20T01:42:47.116Z,997.38
2019-05-20T01:43:47.176Z,997.37
2019-05-20T01:44:47.050Z,997.35
2019-05-20T01:45:49.122Z,997.37
2019-05-20T01:46:46.992Z,997.38
2019-05-20T01:47:48.019Z,997.37
2019-05-20T01:48:46.946Z,997.45
2019-05-20T01:49:47.025Z,997.45
2019-05-20T01:50:46.903Z,997.51
2019-05-20T01:51:47.942Z,997.52
2019-05-20T01:52:46.847Z,997.56
2019-05-20T01:53:53.578Z,997.53
2019-05-20T01:54:46.785Z,997.61
2019-05-20T01:55:46.839Z,997.63
2019-05-20T01:56:46.753Z,997.66
2019-05-20T01:57:46.755Z,997.66
2019-05-20T01:58:46.673Z,997.67
2019-05-20T01:59:46.762Z,997.69
2019-05-20T02:00:46.627Z,997.66
2019-05-20T02:01:53.658Z,997.69
2019-05-20T02:02:46.578Z,997.68
2019-05-20T02:03:46.588Z,997.66
2019-05-20T02:04:46.526Z,997.62
2019-05-20T02:05:47.530Z,997.61
2019-05-20T02:06:46.475Z,997.60
2019-05-20T02:07:46.523Z,997.62
2019-05-20T02:08:46.416Z,997.60
2019-05-20T02:09:47.450Z,997.60
2019-05-20T02:10:46.357Z,997.58
2019-05-20T02:11:46.431Z,997.58
2019-05-20T02:12:46.299Z,997.59
2019-05-20T02:13:48.297Z,997.63
2019-05-20T02:14:46.246Z,997.65
2019-05-20T02:15:46.262Z,997.64
2019-05-20T02:16:46.194Z,997.71
2019-05-20T02:17:46.276Z,997.68
2019-05-20T02:18:46.146Z,997.66
2019-05-20T02:19:47.203Z,997.66
2019-05-20T02:20:46.094Z,997.62
2019-05-20T02:21:46.098Z,997.63
2019-05-20T02:22:46.027Z,997.60
2019-05-20T02:23:46.103Z,997.57
2019-05-20T02:24:45.983Z,997.60
2019-05-20T02:25:46.885Z,997.60
2019-05-20T02:26:45.931Z,997.61
2019-05-20T02:27:45.932Z,997.63
2019-05-20T02:28:45.874Z,997.61
2019-05-20T02:29:46.873Z,997.65
2019-05-20T02:30:45.844Z,997.67
2019-05-20T02:31:45.861Z,997.62
2019-05-20T02:32:45.838Z,997.60
2019-05-20T02:33:51.818Z,997.57
2019-05-20T02:34:45.711Z,997.58
2019-05-20T02:35:45.775Z,997.53
2019-05-20T02:36:45.655Z,997.53
2019-05-20T02:37:46.688Z,997.49
2019-05-20T02:38:45.603Z,997.46
2019-05-20T02:39:47.617Z,997.48
2019-05-20T02:40:45.544Z,997.47
2019-05-20T02:41:52.140Z,997.49
2019-05-20T02:42:45.494Z,997.47
2019-05-20T02:43:45.499Z,997.49
2019-05-20T02:44:45.438Z,997.46
2019-05-20T02:45:47.480Z,997.48
2019-05-20T02:46:45.403Z,997.48
2019-05-20T02:47:46.471Z,997.44
2019-05-20T02:48:45.334Z,997.40
2019-05-20T02:49:45.485Z,997.36
2019-05-20T02:50:45.281Z,997.41
2019-05-20T02:51:47.320Z,997.40
2019-05-20T02:52:45.229Z,997.41
2019-05-20T02:53:47.360Z,997.44
2019-05-20T02:54:45.178Z,997.44
2019-05-20T02:55:45.322Z,997.46
2019-05-20T02:56:45.134Z,997.48
2019-05-20T02:57:45.189Z,997.53
2019-05-20T02:58:45.054Z,997.47
2019-05-20T02:59:46.124Z,997.50
2019-05-20T03:00:45.013Z,997.47
2019-05-20T03:01:47.075Z,997.49
2019-05-20T03:02:44.955Z,997.47
2019-05-20T03:04:10.721Z,997.45
2019-05-20T03:04:44.908Z,997.42
2019-05-20T03:05:44.933Z,997.42
2019-05-20T03:06:44.859Z,997.42
2019-05-20T03:07:45.881Z,997.43
2019-05-20T03:08:44.808Z,997.44
2019-05-20T03:09:44.859Z,997.44
2019-05-20T03:10:44.819Z,997.42
2019-05-20T03:11:51.636Z,997.41
2019-05-20T03:12:44.688Z,997.45
2019-05-20T03:13:44.681Z,997.45
2019-05-20T03:14:44.648Z,997.48
2019-05-20T03:15:44.808Z,997.49
2019-05-20T03:16:44.579Z,997.53
2019-05-20T03:17:44.620Z,997.51
2019-05-20T03:18:44.515Z,997.56
2019-05-20T03:19:44.528Z,997.61
2019-05-20T03:20:44.461Z,997.64
2019-05-20T03:21:44.623Z,997.65
2019-05-20T03:22:44.476Z,997.65
2019-05-20T03:23:44.451Z,997.66
2019-05-20T03:24:44.354Z,997.66
2019-05-20T03:25:51.187Z,997.66
2019-05-20T03:26:44.382Z,997.68
2019-05-20T03:27:45.296Z,997.69
2019-05-20T03:28:44.242Z,997.71
2019-05-20T03:29:45.309Z,997.71
2019-05-20T03:30:44.194Z,997.73
2019-05-20T03:31:44.204Z,997.74
2019-05-20T03:32:44.148Z,997.77
2019-05-20T03:33:45.165Z,997.75
2019-05-20T03:34:53.677Z,997.78
2019-05-20T03:35:44.058Z,997.79
2019-05-20T03:36:45.052Z,997.78
2019-05-20T03:37:44.001Z,997.79
2019-05-20T03:38:44.094Z,997.80
2019-05-20T03:39:43.950Z,997.82
2019-05-20T03:40:44.025Z,997.78
2019-05-20T03:41:43.901Z,997.77
2019-05-20T03:42:43.935Z,997.76
2019-05-20T03:43:43.876Z,997.77
2019-05-20T03:44:43.859Z,997.80
2019-05-20T03:45:43.790Z,997.83
2019-05-20T03:46:43.756Z,997.86
2019-05-20T03:47:43.754Z,997.83
2019-05-20T03:48:43.704Z,997.83
2019-05-20T03:49:43.675Z,997.86
2019-05-20T03:50:43.656Z,997.86
2019-05-20T03:51:43.626Z,997.87
2019-05-20T03:52:43.609Z,997.88
2019-05-20T03:53:43.569Z,997.87
2019-05-20T03:54:43.554Z,997.89
2019-05-20T03:55:43.521Z,997.87
2019-05-20T03:56:43.493Z,997.91
2019-05-20T03:57:43.530Z,997.93
2019-05-20T03:58:43.428Z,997.92
2019-05-20T03:59:43.410Z,997.95
2019-05-20T04:00:43.461Z,997.93
2019-05-20T04:01:43.355Z,997.94
2019-05-20T04:02:43.357Z,997.95
2019-05-20T04:03:43.304Z,997.95
2019-05-20T04:05:00.896Z,997.93
2019-05-20T04:05:43.259Z,997.94
2019-05-20T04:06:43.227Z,997.92
2019-05-20T04:07:43.286Z,997.91
2019-05-20T04:08:43.156Z,997.93
2019-05-20T04:09:43.169Z,997.94
2019-05-20T04:10:43.126Z,997.93
2019-05-20T04:11:43.186Z,997.92
2019-05-20T04:12:43.053Z,997.93
2019-05-20T04:13:43.070Z,997.93
2019-05-20T04:14:43.027Z,997.94
2019-05-20T04:15:42.968Z,997.90
2019-05-20T04:16:42.944Z,997.96
2019-05-20T04:17:42.915Z,997.96
2019-05-20T04:18:42.889Z,997.96
2019-05-20T04:19:42.860Z,998.02
2019-05-20T04:20:43.017Z,997.97
2019-05-20T04:21:42.807Z,997.99
2019-05-20T04:22:42.819Z,998.05
2019-05-20T04:23:42.774Z,998.00
2019-05-20T04:24:42.735Z,998.09
2019-05-20T04:25:42.702Z,998.13
2019-05-20T04:26:42.764Z,998.16
2019-05-20T04:27:42.652Z,998.15
2019-05-20T04:28:42.630Z,998.10
2019-05-20T04:29:42.583Z,998.15
2019-05-20T04:30:42.571Z,998.16
2019-05-20T04:31:42.537Z,998.11
2019-05-20T04:32:42.499Z,998.15
2019-05-20T04:33:42.509Z,998.11
2019-05-20T04:34:42.452Z,998.16
2019-05-20T04:35:42.426Z,998.14
2019-05-20T04:36:42.409Z,998.12
2019-05-20T04:37:42.363Z,998.14
2019-05-20T04:38:42.426Z,998.13
2019-05-20T04:39:42.302Z,998.13
2019-05-20T04:40:42.333Z,998.09
2019-05-20T04:41:42.257Z,998.08
2019-05-20T04:42:43.268Z,998.04
2019-05-20T04:43:42.193Z,998.07
2019-05-20T04:44:42.258Z,998.04
2019-05-20T04:45:42.186Z,998.06
2019-05-20T04:46:42.176Z,998.05
2019-05-20T04:47:42.121Z,997.99
2019-05-20T04:48:42.097Z,998.03
2019-05-20T04:49:42.035Z,998.01
2019-05-20T04:50:42.108Z,998.01
2019-05-20T04:51:41.977Z,997.96
2019-05-20T04:52:42.013Z,997.96
2019-05-20T04:53:42.055Z,997.91
2019-05-20T04:54:41.922Z,997.91
2019-05-20T04:55:41.859Z,997.95
2019-05-20T04:56:42.857Z,997.97
2019-05-20T04:57:41.830Z,997.97
2019-05-20T04:58:42.871Z,997.95
2019-05-20T04:59:41.757Z,997.94
2019-05-20T05:00:42.787Z,997.95
2019-05-20T05:01:41.701Z,997.98
2019-05-20T05:02:43.634Z,997.98
2019-05-20T05:03:41.649Z,997.99
2019-05-20T05:04:42.722Z,997.99
2019-05-20T05:05:41.598Z,997.99
2019-05-20T05:06:41.601Z,998.00
2019-05-20T05:07:41.526Z,998.04
2019-05-20T05:08:42.535Z,998.04
2019-05-20T05:09:41.495Z,998.06
2019-05-20T05:10:41.525Z,998.05
2019-05-20T05:11:41.451Z,998.05
2019-05-20T05:12:41.435Z,998.04
2019-05-20T05:13:41.368Z,998.09
2019-05-20T05:14:41.345Z,998.08
2019-05-20T05:15:41.347Z,998.11
2019-05-20T05:16:41.362Z,998.14
2019-05-20T05:17:41.268Z,998.09
2019-05-20T05:18:41.344Z,998.10
2019-05-20T05:19:41.216Z,998.05
2019-05-20T05:20:41.181Z,998.09
2019-05-20T05:21:41.152Z,998.09
2019-05-20T05:22:41.128Z,998.11
2019-05-20T05:23:41.100Z,998.10
2019-05-20T05:24:41.072Z,998.15
2019-05-20T05:25:48.695Z,998.16
2019-05-20T05:26:41.017Z,998.13
2019-05-20T05:27:47.679Z,998.19
2019-05-20T05:28:40.959Z,998.16
2019-05-20T05:29:41.968Z,998.14
2019-05-20T05:30:40.990Z,998.14
2019-05-20T05:31:40.951Z,998.19
2019-05-20T05:32:40.850Z,998.17
2019-05-20T05:33:40.867Z,998.17
2019-05-20T05:34:40.789Z,998.17
2019-05-20T05:35:52.302Z,998.26
2019-05-20T05:36:40.772Z,998.26
2019-05-20T05:37:40.790Z,998.26
2019-05-20T05:38:40.695Z,998.27
2019-05-20T05:39:40.661Z,998.26
2019-05-20T05:40:40.628Z,998.22
2019-05-20T05:41:40.614Z,998.31
2019-05-20T05:42:40.575Z,998.22
2019-05-20T05:43:40.643Z,998.24
2019-05-20T05:44:40.518Z,998.25
2019-05-20T05:45:40.494Z,998.24
2019-05-20T05:46:40.476Z,998.24
2019-05-20T05:47:40.473Z,998.22
2019-05-20T05:48:40.427Z,998.23
2019-05-20T05:49:40.383Z,998.27
2019-05-20T05:50:40.352Z,998.23
2019-05-20T05:51:40.362Z,998.20
2019-05-20T05:52:40.293Z,998.22
2019-05-20T05:53:40.274Z,998.23
2019-05-20T05:54:40.247Z,998.22
2019-05-20T05:55:40.216Z,998.28
2019-05-20T05:56:40.192Z,998.27
2019-05-20T05:57:40.174Z,998.20
2019-05-20T05:58:40.142Z,998.19
2019-05-20T05:59:40.115Z,998.18
2019-05-20T06:00:40.075Z,998.23
2019-05-20T06:01:40.207Z,998.22
2019-05-20T06:02:40.027Z,998.23
2019-05-20T06:03:42.142Z,998.25
2019-05-20T06:04:39.968Z,998.27
2019-05-20T06:05:40.069Z,998.28
2019-05-20T06:06:39.910Z,998.35
2019-05-20T06:07:39.982Z,998.34
2019-05-20T06:08:39.868Z,998.33
2019-05-20T06:09:41.946Z,998.32
2019-05-20T06:10:39.800Z,998.33
2019-05-20T06:11:39.922Z,998.36
2019-05-20T06:12:39.743Z,998.43
2019-05-20T06:13:39.805Z,998.35
2019-05-20T06:14:39.703Z,998.37
2019-05-20T06:15:39.817Z,998.42
2019-05-20T06:16:39.640Z,998.40
2019-05-20T06:17:40.757Z,998.38
2019-05-20T06:18:39.660Z,998.41
2019-05-20T06:19:40.680Z,998.41
2019-05-20T06:20:39.526Z,998.32
2019-05-20T06:21:39.697Z,998.40
2019-05-20T06:22:39.543Z,998.37
2019-05-20T06:23:39.567Z,998.36
2019-05-20T06:24:39.419Z,998.38
2019-05-20T06:25:40.501Z,998.38
2019-05-20T06:26:39.366Z,998.35
2019-05-20T06:27:39.482Z,998.37
2019-05-20T06:28:39.370Z,998.36
2019-05-20T06:29:39.397Z,998.34
2019-05-20T06:30:39.278Z,998.38
2019-05-20T06:31:40.373Z,998.36
2019-05-20T06:32:39.219Z,998.39
2019-05-20T06:33:39.327Z,998.40
2019-05-20T06:34:42.285Z,998.39
2019-05-20T06:35:39.261Z,998.37
2019-05-20T06:36:39.096Z,998.39
2019-05-20T06:37:39.177Z,998.37
2019-05-20T06:38:39.034Z,998.37
2019-05-20T06:39:39.177Z,998.35
2019-05-20T06:40:38.990Z,998.38
2019-05-20T06:41:39.056Z,998.40
2019-05-20T06:42:39.008Z,998.38
2019-05-20T06:43:39.154Z,998.35
2019-05-20T06:44:51.692Z,998.38
2019-05-20T06:45:38.834Z,998.36
2019-05-20T06:46:39.929Z,998.40
2019-05-20T06:47:38.794Z,998.43
2019-05-20T06:48:38.827Z,998.41
2019-05-20T06:49:38.730Z,998.42
2019-05-20T06:50:38.727Z,998.47
2019-05-20T06:51:38.676Z,998.44
2019-05-20T06:52:39.676Z,998.51
2019-05-20T06:53:38.614Z,998.52
2019-05-20T06:54:38.768Z,998.50
2019-05-20T06:55:38.555Z,998.53
2019-05-20T06:56:38.528Z,998.54
2019-05-20T06:57:38.513Z,998.57
2019-05-20T06:58:38.478Z,998.57
2019-05-20T06:59:39.514Z,998.59
2019-05-20T07:00:38.424Z,998.53
2019-05-20T07:01:39.520Z,998.56
2019-05-20T07:02:38.373Z,998.57
2019-05-20T07:03:38.408Z,998.58
2019-05-20T07:04:38.299Z,998.60
2019-05-20T07:05:38.385Z,998.58
2019-05-20T07:06:46.701Z,998.62
2019-05-20T07:07:38.235Z,998.65
2019-05-20T07:08:38.202Z,998.67
2019-05-20T07:09:38.183Z,998.65
2019-05-20T07:10:38.188Z,998.67
2019-05-20T07:11:38.131Z,998.71
2019-05-20T07:12:41.622Z,998.73
2019-05-20T07:13:38.061Z,998.74
2019-05-20T07:14:38.038Z,998.75
2019-05-20T07:15:38.046Z,998.76
2019-05-20T07:16:38.016Z,998.73
2019-05-20T07:17:37.963Z,998.72
2019-05-20T07:18:37.924Z,998.70
2019-05-20T07:19:37.933Z,998.74
2019-05-20T07:20:37.934Z,998.77
2019-05-20T07:21:37.842Z,998.74
2019-05-20T07:22:54.522Z,998.77
2019-05-20T07:23:37.823Z,998.71
2019-05-20T07:24:37.779Z,998.79
2019-05-20T07:25:38.794Z,998.78
2019-05-20T07:26:37.712Z,998.83
2019-05-20T07:27:39.693Z,998.89
2019-05-20T07:28:37.698Z,998.87
2019-05-20T07:29:38.691Z,998.91
2019-05-20T07:30:37.603Z,998.92
2019-05-20T07:31:39.689Z,998.89
2019-05-20T07:32:37.532Z,998.93
2019-05-20T07:33:37.596Z,998.93
2019-05-20T07:34:37.479Z,998.89
2019-05-20T07:35:37.549Z,998.94
2019-05-20T07:36:37.431Z,998.94
2019-05-20T07:37:37.495Z,998.94
2019-05-20T07:38:37.411Z,998.92
2019-05-20T07:39:37.365Z,998.90
2019-05-20T07:40:37.328Z,998.93
2019-05-20T07:41:41.187Z,998.89
2019-05-20T07:42:37.272Z,998.89
2019-05-20T07:43:37.246Z,998.94
2019-05-20T07:44:37.231Z,998.89
2019-05-20T07:45:38.233Z,998.89
2019-05-20T07:46:37.158Z,998.90
2019-05-20T07:47:38.295Z,998.89
2019-05-20T07:48:37.483Z,998.91
2019-05-20T07:49:37.082Z,998.93
2019-05-20T07:50:38.203Z,998.90
2019-05-20T07:51:37.008Z,998.88
2019-05-20T07:52:37.049Z,998.85
2019-05-20T07:53:36.993Z,998.82
2019-05-20T07:54:37.982Z,998.83
2019-05-20T07:55:36.911Z,998.80
2019-05-20T07:56:36.931Z,998.78
2019-05-20T07:57:36.845Z,998.77
2019-05-20T07:58:37.950Z,998.83
2019-05-20T07:59:36.843Z,998.75
2019-05-20T08:00:36.812Z,998.81
2019-05-20T08:01:36.841Z,998.81
2019-05-20T08:02:36.769Z,998.85
2019-05-20T08:03:38.704Z,998.84
2019-05-20T08:04:36.693Z,998.82
2019-05-20T08:05:36.627Z,998.86
2019-05-20T08:06:36.658Z,998.82
2019-05-20T08:07:51.319Z,998.77
2019-05-20T08:08:36.540Z,998.86
2019-05-20T08:09:44.588Z,998.87
2019-05-20T08:10:36.505Z,998.85
2019-05-20T08:11:36.487Z,998.85
2019-05-20T08:12:36.458Z,998.85
2019-05-20T08:13:36.525Z,998.86
2019-05-20T08:14:36.391Z,998.88
2019-05-20T08:15:36.362Z,998.88
2019-05-20T08:16:36.336Z,998.89
2019-05-20T08:17:36.302Z,998.85
2019-05-20T08:18:36.300Z,998.90
2019-05-20T08:19:36.348Z,998.85
2019-05-20T08:20:36.239Z,998.90
2019-05-20T08:21:36.184Z,998.88
2019-05-20T08:22:36.181Z,998.91
2019-05-20T08:23:36.181Z,998.94
2019-05-20T08:24:36.107Z,998.87
2019-05-20T08:25:36.196Z,998.88
2019-05-20T08:26:36.061Z,998.91
2019-05-20T08:27:36.100Z,998.96
2019-05-20T08:28:35.994Z,998.96
2019-05-20T08:29:35.960Z,998.94
2019-05-20T08:30:35.929Z,998.95
2019-05-20T08:31:35.901Z,998.97
2019-05-20T08:32:35.903Z,998.97
2019-05-20T08:33:35.880Z,998.92
2019-05-20T08:34:36.393Z,998.97
2019-05-20T08:35:35.959Z,999.00
2019-05-20T08:36:35.795Z,998.96
2019-05-20T08:37:45.371Z,998.98
2019-05-20T08:38:35.725Z,999.01
2019-05-20T08:39:35.688Z,998.99
2019-05-20T08:40:35.659Z,998.97
2019-05-20T08:41:35.631Z,998.97
2019-05-20T08:42:35.613Z,999.01
2019-05-20T08:43:35.674Z,999.02
2019-05-20T08:44:35.645Z,999.02
2019-05-20T08:45:44.251Z,999.04
2019-05-20T08:46:35.492Z,999.01
2019-05-20T08:47:56.560Z,999.02
2019-05-20T08:48:35.497Z,999.03
2019-05-20T08:49:35.639Z,999.05
2019-05-20T08:50:35.380Z,999.03
2019-05-20T08:51:37.455Z,999.00
2019-05-20T08:52:35.341Z,999.01
2019-05-20T08:53:35.451Z,999.02
2019-05-20T08:54:35.267Z,999.05
2019-05-20T08:55:56.256Z,999.04
2019-05-20T08:56:35.236Z,999.04
2019-05-20T08:57:35.275Z,998.99
2019-05-20T08:58:35.167Z,999.02
2019-05-20T08:59:35.177Z,999.03
2019-05-20T09:00:35.097Z,999.01
2019-05-20T09:01:35.117Z,998.99
2019-05-20T09:02:35.045Z,999.01
2019-05-20T09:03:35.108Z,999.00
2019-05-20T09:04:34.988Z,999.03
2019-05-20T09:05:35.062Z,999.03
2019-05-20T09:06:34.945Z,999.06
2019-05-20T09:07:35.960Z,999.02
2019-05-20T09:08:34.903Z,999.06
2019-05-20T09:09:35.023Z,999.08
2019-05-20T09:10:34.844Z,999.09
2019-05-20T09:11:34.891Z,999.09
2019-05-20T09:12:34.778Z,999.11
2019-05-20T09:13:34.768Z,999.08
2019-05-20T09:14:34.722Z,999.08
2019-05-20T09:15:34.779Z,999.06
2019-05-20T09:16:34.655Z,999.04
2019-05-20T09:17:38.650Z,999.01
2019-05-20T09:18:34.613Z,999.02
2019-05-20T09:19:34.616Z,999.02
2019-05-20T09:20:34.554Z,999.04
2019-05-20T09:21:34.614Z,999.02
2019-05-20T09:22:34.498Z,999.00
2019-05-20T09:23:34.494Z,999.00
2019-05-20T09:24:34.516Z,999.04
2019-05-20T09:25:34.450Z,999.04
2019-05-20T09:26:34.509Z,999.04
2019-05-20T09:27:34.402Z,998.99
2019-05-20T09:28:34.336Z,999.00
2019-05-20T09:29:37.862Z,998.97
2019-05-20T09:30:34.275Z,998.99
2019-05-20T09:31:34.266Z,999.00
2019-05-20T09:32:34.224Z,998.99
2019-05-20T09:33:34.200Z,998.97
2019-05-20T09:34:34.166Z,998.97
2019-05-20T09:35:34.136Z,998.95
2019-05-20T09:36:34.110Z,999.01
2019-05-20T09:37:34.080Z,999.03
2019-05-20T09:38:36.918Z,999.07
2019-05-20T09:39:34.025Z,999.06
2019-05-20T09:40:33.998Z,999.05
2019-05-20T09:41:33.973Z,999.03
2019-05-20T09:42:33.950Z,999.06
2019-05-20T09:43:33.978Z,999.07
2019-05-20T09:44:33.928Z,999.05
2019-05-20T09:45:33.867Z,999.06
2019-05-20T09:46:33.831Z,999.04
2019-05-20T09:47:33.926Z,999.08
2019-05-20T09:48:33.815Z,999.09
2019-05-20T09:49:33.766Z,999.06
2019-05-20T09:50:33.744Z,999.03
2019-05-20T09:51:33.751Z,999.03
2019-05-20T09:52:33.661Z,999.09
2019-05-20T09:53:33.645Z,999.05
2019-05-20T09:54:33.615Z,999.13
2019-05-20T09:55:33.668Z,999.10
2019-05-20T09:56:34.590Z,999.16
2019-05-20T09:57:33.555Z,999.18
2019-05-20T09:58:33.559Z,999.15
2019-05-20T09:59:42.522Z,999.16
2019-05-20T10:00:33.465Z,999.16
2019-05-20T10:01:33.443Z,999.19
2019-05-20T10:02:37.833Z,999.19
2019-05-20T10:03:33.361Z,999.17
2019-05-20T10:04:33.326Z,999.20
2019-05-20T10:05:36.544Z,999.19
2019-05-20T10:06:33.279Z,999.21
2019-05-20T10:07:33.378Z,999.19
2019-05-20T10:08:38.920Z,999.21
2019-05-20T10:09:33.207Z,999.18
2019-05-20T10:10:33.236Z,999.23
2019-05-20T10:11:33.140Z,999.17
2019-05-20T10:12:45.199Z,999.18
2019-05-20T10:13:33.104Z,999.21
2019-05-20T10:14:33.130Z,999.25
2019-05-20T10:15:33.020Z,999.25
2019-05-20T10:16:33.045Z,999.25
2019-05-20T10:17:32.965Z,999.26
2019-05-20T10:18:37.213Z,999.29
2019-05-20T10:19:32.931Z,999.35
2019-05-20T10:20:33.018Z,999.30
2019-05-20T10:21:32.894Z,999.33
2019-05-20T10:22:32.942Z,999.29
2019-05-20T10:23:32.823Z,999.32
2019-05-20T10:24:32.964Z,999.35
2019-05-20T10:25:32.788Z,999.38
2019-05-20T10:26:32.853Z,999.42
2019-05-20T10:27:32.690Z,999.46
2019-05-20T10:28:32.812Z,999.42
2019-05-20T10:29:32.666Z,999.48
2019-05-20T10:30:32.760Z,999.48
2019-05-20T10:31:32.599Z,999.51
2019-05-20T10:32:32.684Z,999.47
2019-05-20T10:33:32.528Z,999.50
2019-05-20T10:34:32.606Z,999.43
2019-05-20T10:35:32.470Z,999.42
2019-05-20T10:36:32.445Z,999.42
2019-05-20T10:37:32.476Z,999.41
2019-05-20T10:38:32.396Z,999.39
2019-05-20T10:39:32.363Z,999.36
2019-05-20T10:40:32.421Z,999.37
2019-05-20T10:41:32.317Z,999.37
2019-05-20T10:42:32.288Z,999.37
2019-05-20T10:43:32.247Z,999.35
2019-05-20T10:44:32.254Z,999.37
2019-05-20T10:45:32.191Z,999.34
2019-05-20T10:46:32.250Z,999.39
2019-05-20T10:47:32.173Z,999.36
2019-05-20T10:48:32.298Z,999.35
2019-05-20T10:49:32.091Z,999.38
2019-05-20T10:50:32.045Z,999.37
2019-05-20T10:51:32.030Z,999.36
2019-05-20T10:52:32.125Z,999.37
2019-05-20T10:53:31.972Z,999.35
2019-05-20T10:54:31.948Z,999.39
2019-05-20T10:55:32.097Z,999.46
2019-05-20T10:56:31.883Z,999.50
2019-05-20T10:57:32.031Z,999.43
2019-05-20T10:58:31.839Z,999.44
2019-05-20T10:59:31.947Z,999.43
2019-05-20T11:00:31.792Z,999.39
2019-05-20T11:01:31.859Z,999.44
2019-05-20T11:02:31.766Z,999.47
2019-05-20T11:03:31.667Z,999.46
2019-05-20T11:04:35.302Z,999.46
2019-05-20T11:05:31.634Z,999.50
2019-05-20T11:06:31.594Z,999.49
2019-05-20T11:07:31.558Z,999.45
2019-05-20T11:08:31.556Z,999.47
2019-05-20T11:09:31.502Z,999.54
2019-05-20T11:10:31.478Z,999.53
2019-05-20T11:11:31.489Z,999.50
2019-05-20T11:12:31.431Z,999.55
2019-05-20T11:13:31.387Z,999.52
2019-05-20T11:14:31.360Z,999.59
2019-05-20T11:15:31.346Z,999.54
2019-05-20T11:16:31.308Z,999.52
2019-05-20T11:17:31.310Z,999.56
2019-05-20T11:18:31.275Z,999.57
2019-05-20T11:19:31.226Z,999.53
2019-05-20T11:20:31.183Z,999.53
2019-05-20T11:21:31.188Z,999.56
2019-05-20T11:22:31.162Z,999.53
2019-05-20T11:23:31.129Z,999.56
2019-05-20T11:24:31.107Z,999.55
2019-05-20T11:25:31.335Z,999.55
2019-05-20T11:26:31.074Z,999.53
2019-05-20T11:27:31.019Z,999.51
2019-05-20T11:28:30.962Z,999.49
2019-05-20T11:29:30.929Z,999.54
2019-05-20T11:30:30.892Z,999.48
2019-05-20T11:31:30.882Z,999.55
2019-05-20T11:32:30.910Z,999.51
2019-05-20T11:33:30.811Z,999.56
2019-05-20T11:34:30.862Z,999.52
2019-05-20T11:35:30.801Z,999.51
2019-05-20T11:36:30.721Z,999.52
2019-05-20T11:37:30.730Z,999.54
2019-05-20T11:38:30.682Z,999.55
2019-05-20T11:39:33.696Z,999.52
2019-05-20T11:40:30.632Z,999.51
2019-05-20T11:41:52.067Z,999.54
2019-05-20T11:42:30.563Z,999.48
2019-05-20T11:43:30.546Z,999.52
2019-05-20T11:44:30.681Z,999.49
2019-05-20T11:45:30.498Z,999.48
2019-05-20T11:46:30.458Z,999.50
2019-05-20T11:47:30.425Z,999.44
2019-05-20T11:48:30.387Z,999.48
2019-05-20T11:49:30.368Z,999.47
2019-05-20T11:50:31.426Z,999.46
2019-05-20T11:51:30.320Z,999.53
2019-05-20T11:52:32.407Z,999.47
2019-05-20T11:53:30.253Z,999.49
2019-05-20T11:54:31.356Z,999.46
2019-05-20T11:55:30.220Z,999.51
2019-05-20T11:56:30.178Z,999.52
2019-05-20T11:57:30.232Z,999.53
2019-05-20T11:58:30.107Z,999.50
2019-05-20T11:59:30.133Z,999.53
2019-05-20T12:00:30.059Z,999.51
2019-05-20T12:01:30.032Z,999.52
2019-05-20T12:02:30.043Z,999.57
2019-05-20T12:03:30.046Z,999.55
2019-05-20T12:04:29.945Z,999.55
2019-05-20T12:05:29.928Z,999.55
2019-05-20T12:06:29.886Z,999.53
2019-05-20T12:07:29.861Z,999.51
2019-05-20T12:08:29.839Z,999.55
2019-05-20T12:09:29.815Z,999.51
2019-05-20T12:10:29.776Z,999.51
2019-05-20T12:11:29.762Z,999.50
2019-05-20T12:12:29.811Z,999.48
2019-05-20T12:13:29.700Z,999.41
2019-05-20T12:14:29.657Z,999.42
2019-05-20T12:15:29.651Z,999.42
2019-05-20T12:16:29.637Z,999.43
2019-05-20T12:17:29.594Z,999.37
2019-05-20T12:18:29.649Z,999.37
2019-05-20T12:19:29.628Z,999.40
2019-05-20T12:20:29.558Z,999.36
2019-05-20T12:21:29.502Z,999.39
2019-05-20T12:22:29.475Z,999.37
2019-05-20T12:23:29.416Z,999.37
2019-05-20T12:24:29.518Z,999.35
2019-05-20T12:25:29.370Z,999.34
2019-05-20T12:26:29.401Z,999.37
2019-05-20T12:27:29.309Z,999.33
2019-05-20T12:28:29.310Z,999.29